This is the latest recevied weather packets stored in our database for station/object HS5FXK-3. If no packets are shown the sender has not sent any weather packets the latest 10 day(s).
| Time | Temp. | Humidity | Pressure | Rain* | Wind** | Luminosity | Snow |
|---|---|---|---|---|---|---|---|
| 1778221049 | 40° C | 39% | 978 hPa | - | - | 0 W/m² | - |
| 1778220560 | 38.89° C | 40% | 978 hPa | - | - | 0 W/m² | - |
| 1778219838 | 40° C | 39% | 978 hPa | - | - | 0 W/m² | - |
| 1778218736 | 38.89° C | 41% | 979 hPa | - | - | 0 W/m² | - |
| 1778217824 | 38.89° C | 43% | 979 hPa | - | - | 0 W/m² | - |
| 1778216911 | 38.33° C | 43% | 979 hPa | - | - | 0 W/m² | - |
| 1778216140 | 37.78° C | 45% | 980 hPa | - | - | 0 W/m² | - |
| 1778215228 | 37.78° C | 48% | 980 hPa | - | - | 0 W/m² | - |
| 1778214251 | 36.11° C | 51% | 980 hPa | - | - | 0 W/m² | - |
| 1778212659 | 36.67° C | 51% | 981 hPa | - | - | 0 W/m² | - |
| 1778212063 | 36.11° C | 53% | 981 hPa | - | - | 0 W/m² | - |
| 1778210537 | 34.44° C | 60% | 981 hPa | - | - | 0 W/m² | - |
| 1778210262 | 35° C | 60% | 981 hPa | - | - | 0 W/m² | - |
| 1778209351 | 33.89° C | 61% | 981 hPa | - | - | 0 W/m² | - |
| 1778208438 | 33.33° C | 62% | 981 hPa | - | - | 0 W/m² | - |
| 1778207526 | 31.67° C | 69% | 981 hPa | - | - | 0 W/m² | - |
| 1778206614 | 31.67° C | 71% | 981 hPa | - | - | 0 W/m² | - |
| 1778205702 | 32.22° C | 68% | 981 hPa | - | - | 0 W/m² | - |
| 1778204789 | 31.67° C | 71% | 981 hPa | - | - | 0 W/m² | - |
| 1778203877 | 30° C | 82% | 981 hPa | - | - | 0 W/m² | - |
| 1778203482 | 29.44° C | 86% | 981 hPa | - | - | 0 W/m² | - |
| 1778202421 | 28.89° C | 89% | 981 hPa | - | - | 0 W/m² | - |
| 1778201532 | 28.89° C | 94% | 981 hPa | - | - | 0 W/m² | - |
| 1778200523 | 27.78° C | 99% | 981 hPa | - | - | 0 W/m² | - |
| 1778199095 | 27.22° C | 99% | 980 hPa | - | - | 0 W/m² | - |
* Rain since midnight (hover to see other rain measurements)
** Current wind speed in m/s (hover to see current wind gust speed)